LFLH

Chalon-Champforgeuil Airport

Airport
ICAO code
LFLH
IATA Code
XCD
Summary
ICAO Region
EUR
ICAO Territory
Location

, Bourgogne

Serving
Chalon
Elevation
623 ft
Coordinates
46° 49' 34" N , 4° 49' 3" E
Metar
Observation
LFLH 091800Z AUTO 04003KT 010V070 9999 BKN025 OVC037 03/M01 Q1003
Station
Chalon-Champforgeuil
Date/Time
2022-12-09 18:00:00
Wind direction
40°
Wind speed
03 kts
Lowest cloud amount
broken clouds
Temperature
3°C
Dew point
-1°C
Humidity
74%
QNH
1003 hPa
Weather condition
n/a

Runways

Designator Length Width Surface Rops
17/35 1440 30 ASP No/No

Airport map

Aerial View

SKYbrary Partners:

Safety knowledge contributed by: